Time;durP1;ratioP1;P1;durP2;ratioP2;P2;SDS_P1;SDS_P2;PMS_P1;PMS_P2;Temp;Humidity;BMP_temperature;BMP_pressure;BME280_temperature;BME280_humidity;BME280_pressure;Samples;Min_cycle;Max_cycle;Signal;HPM_P1;HPM_P2
2024/01/19 00:01:20;;;;;;;6.33;3.57;;;;;;;;;;6080071;23;20194;-91
2024/01/19 00:04:27;;;;;;;6.77;3.20;;;;;;;;;;6081104;23;20170;-89
2024/01/19 00:07:32;;;;;;;6.23;3.20;;;;;;;;;;6080879;23;20171;-89
2024/01/19 00:10:37;;;;;;;6.10;3.33;;;;;;;;;;6078183;23;20190;-88
2024/01/19 00:13:42;;;;;;;7.67;4.33;;;;;;;;;;6078125;23;20235;-89
2024/01/19 00:16:48;;;;;;;8.57;3.60;;;;;;;;;;6079254;23;20307;-89
2024/01/19 00:19:54;;;;;;;8.53;3.87;;;;;;;;;;6079103;23;20180;-90
2024/01/19 00:23:00;;;;;;;9.37;4.13;;;;;;;;;;6080697;23;20614;-90
2024/01/19 00:26:05;;;;;;;9.77;4.30;;;;;;;;;;6081080;23;20670;-90
2024/01/19 00:29:10;;;;;;;8.87;4.70;;;;;;;;;;6080872;23;20631;-88
2024/01/19 00:32:15;;;;;;;8.97;4.13;;;;;;;;;;6081195;23;20601;-89
2024/01/19 00:35:23;;;;;;;10.20;4.70;;;;;;;;;;6081111;23;20250;-92
2024/01/19 00:38:27;;;;;;;11.13;4.70;;;;;;;;;;6082252;23;20167;-91
2024/01/19 00:41:33;;;;;;;12.03;5.10;;;;;;;;;;6081869;23;20178;-90
2024/01/19 00:44:38;;;;;;;7.97;3.93;;;;;;;;;;6081118;23;20167;-90
2024/01/19 00:47:44;;;;;;;10.10;4.90;;;;;;;;;;6082419;23;20245;-93
2024/01/19 00:50:52;;;;;;;11.47;5.40;;;;;;;;;;6083217;23;20276;-89
2024/01/19 00:53:57;;;;;;;12.80;5.60;;;;;;;;;;6083562;23;20215;-90
2024/01/19 00:57:03;;;;;;;14.43;5.93;;;;;;;;;;6086181;23;20196;-91
2024/01/19 01:03:25;;;;;;;15.87;7.37;;;;;;;;;;6006546;23;20156;-89
2024/01/19 01:06:35;;;;;;;14.20;7.53;;;;;;;;;;6022224;23;20156;-88
2024/01/19 01:09:41;;;;;;;15.17;7.03;;;;;;;;;;6020824;23;20172;-91
2024/01/19 01:12:46;;;;;;;16.77;7.43;;;;;;;;;;6018428;23;20177;-89
2024/01/19 01:19:18;;;;;;;17.13;7.60;;;;;;;;;;6003444;23;20196;-89
2024/01/19 01:22:22;;;;;;;18.00;7.73;;;;;;;;;;6105154;23;20178;-87
2024/01/19 01:25:32;;;;;;;18.00;8.50;;;;;;;;;;6086427;23;20174;-89
2024/01/19 01:28:38;;;;;;;24.10;9.13;;;;;;;;;;6089075;23;20169;-91
2024/01/19 01:31:44;;;;;;;19.80;8.67;;;;;;;;;;6086147;23;20185;-89
2024/01/19 01:34:49;;;;;;;22.83;9.13;;;;;;;;;;6089040;23;20175;-90
2024/01/19 01:37:56;;;;;;;20.03;9.13;;;;;;;;;;6086251;23;20166;-88
2024/01/19 01:41:01;;;;;;;21.97;8.90;;;;;;;;;;6105274;23;20188;-90
2024/01/19 01:44:08;;;;;;;23.83;9.23;;;;;;;;;;6084531;23;20182;-90
2024/01/19 01:47:17;;;;;;;19.90;8.77;;;;;;;;;;6085536;23;20178;-89
2024/01/19 01:50:23;;;;;;;19.80;8.43;;;;;;;;;;6088842;23;20223;-89
2024/01/19 01:53:30;;;;;;;22.40;9.13;;;;;;;;;;6085876;23;20219;-90
2024/01/19 01:56:35;;;;;;;22.90;9.83;;;;;;;;;;6088675;23;20243;-89
2024/01/19 01:59:43;;;;;;;29.60;10.57;;;;;;;;;;6091389;23;20285;-90
2024/01/19 02:02:53;;;;;;;20.00;8.13;;;;;;;;;;6085163;23;20731;-90
2024/01/19 02:05:58;;;;;;;16.53;7.30;;;;;;;;;;6088327;23;20246;-88
2024/01/19 02:09:07;;;;;;;20.10;8.23;;;;;;;;;;6090144;23;20178;-91
2024/01/19 02:12:12;;;;;;;21.20;9.03;;;;;;;;;;6085777;23;20182;-93
2024/01/19 02:15:21;;;;;;;22.33;8.67;;;;;;;;;;6087327;23;20162;-90
2024/01/19 02:18:26;;;;;;;24.27;9.50;;;;;;;;;;6086344;23;20247;-90
2024/01/19 02:21:31;;;;;;;19.47;8.00;;;;;;;;;;6091077;23;20250;-90
2024/01/19 02:24:41;;;;;;;20.50;8.60;;;;;;;;;;6088087;23;20192;-93
2024/01/19 02:27:46;;;;;;;20.97;8.53;;;;;;;;;;6085394;23;20277;-90
2024/01/19 02:30:52;;;;;;;15.30;7.63;;;;;;;;;;6104973;23;20207;-90
2024/01/19 02:33:59;;;;;;;19.60;7.77;;;;;;;;;;6085862;23;20238;-91
2024/01/19 02:37:06;;;;;;;16.70;7.47;;;;;;;;;;6103130;23;20174;-90
2024/01/19 02:40:14;;;;;;;18.70;8.37;;;;;;;;;;6085336;23;20215;-92
2024/01/19 02:43:27;;;;;;;18.93;7.83;;;;;;;;;;6086811;23;20242;-93
2024/01/19 02:46:33;;;;;;;14.97;7.73;;;;;;;;;;6085643;23;20227;-91
2024/01/19 02:49:38;;;;;;;16.87;7.73;;;;;;;;;;6085801;23;20174;-90
2024/01/19 02:52:44;;;;;;;16.70;7.80;;;;;;;;;;6086801;23;20178;-90
2024/01/19 02:55:51;;;;;;;24.43;9.00;;;;;;;;;;6086449;23;20157;-90
2024/01/19 02:58:57;;;;;;;21.17;8.43;;;;;;;;;;6085200;23;20154;-92
2024/01/19 03:02:03;;;;;;;17.67;8.10;;;;;;;;;;6102248;23;20242;-90
2024/01/19 03:05:08;;;;;;;18.80;8.00;;;;;;;;;;6085284;23;20170;-92
2024/01/19 03:08:14;;;;;;;17.07;7.73;;;;;;;;;;6084190;23;20192;-90
2024/01/19 03:11:22;;;;;;;20.07;8.13;;;;;;;;;;6082783;23;20197;-89
2024/01/19 03:14:28;;;;;;;18.47;7.83;;;;;;;;;;6084079;23;20176;-90
2024/01/19 03:17:34;;;;;;;17.83;8.37;;;;;;;;;;6083595;23;20174;-93
2024/01/19 03:20:39;;;;;;;17.97;8.27;;;;;;;;;;6086038;23;20170;-89
2024/01/19 03:23:46;;;;;;;22.70;9.40;;;;;;;;;;6083078;23;20482;-90
2024/01/19 03:26:52;;;;;;;15.07;7.37;;;;;;;;;;6097870;23;20178;-91
2024/01/19 03:29:59;;;;;;;18.10;7.87;;;;;;;;;;6083695;23;20171;-90
2024/01/19 03:36:26;;;;;;;16.23;7.00;;;;;;;;;;6090403;23;20220;-90
2024/01/19 03:39:33;;;;;;;20.40;7.60;;;;;;;;;;6088366;23;20171;-87
2024/01/19 03:42:40;;;;;;;18.07;7.63;;;;;;;;;;6086030;23;20166;-89
2024/01/19 03:45:47;;;;;;;19.27;6.87;;;;;;;;;;6085733;23;20161;-87
2024/01/19 03:48:52;;;;;;;14.10;7.20;;;;;;;;;;6088040;23;20175;-92
2024/01/19 03:52:00;;;;;;;14.70;6.50;;;;;;;;;;6088100;23;20243;-90
2024/01/19 03:55:07;;;;;;;12.93;6.57;;;;;;;;;;6090695;23;20170;-92
2024/01/19 03:58:16;;;;;;;17.47;6.87;;;;;;;;;;6089840;23;20170;-90
2024/01/19 04:01:21;;;;;;;12.53;6.70;;;;;;;;;;6087712;23;20190;-89
2024/01/19 04:04:26;;;;;;;14.97;6.93;;;;;;;;;;6084995;23;20286;-91
2024/01/19 04:07:32;;;;;;;13.10;6.43;;;;;;;;;;6084978;23;20170;-91
2024/01/19 04:10:38;;;;;;;15.43;5.93;;;;;;;;;;6088570;23;20224;-88
2024/01/19 04:13:47;;;;;;;12.13;5.90;;;;;;;;;;6088230;23;20302;-90
2024/01/19 04:16:53;;;;;;;13.63;6.33;;;;;;;;;;6088693;23;20246;-91
2024/01/19 04:19:59;;;;;;;18.03;6.37;;;;;;;;;;6090549;23;20166;-89
2024/01/19 04:23:05;;;;;;;15.73;6.13;;;;;;;;;;6090398;23;20182;-87
2024/01/19 04:26:11;;;;;;;12.70;6.40;;;;;;;;;;6094544;23;20158;-90
2024/01/19 04:29:25;;;;;;;15.23;5.97;;;;;;;;;;6093280;23;20155;-89
2024/01/19 04:32:32;;;;;;;15.33;6.57;;;;;;;;;;6084188;23;20205;-88
2024/01/19 04:35:37;;;;;;;18.37;6.43;;;;;;;;;;6086627;23;20238;-91
2024/01/19 04:38:42;;;;;;;11.47;5.53;;;;;;;;;;6086335;23;20170;-91
2024/01/19 04:41:48;;;;;;;14.53;6.27;;;;;;;;;;6087868;23;20216;-93
2024/01/19 04:44:54;;;;;;;16.57;5.90;;;;;;;;;;6088166;23;20191;-88
2024/01/19 04:48:00;;;;;;;16.40;6.07;;;;;;;;;;6088678;23;20619;-90
2024/01/19 04:51:06;;;;;;;15.37;6.00;;;;;;;;;;6088391;23;20166;-91
2024/01/19 04:54:11;;;;;;;15.23;6.47;;;;;;;;;;6086360;23;20618;-89
2024/01/19 04:57:17;;;;;;;13.63;6.30;;;;;;;;;;6087651;23;20187;-88
2024/01/19 05:00:24;;;;;;;14.47;5.80;;;;;;;;;;6087275;23;20171;-91
2024/01/19 05:03:30;;;;;;;15.07;6.43;;;;;;;;;;6094219;23;20182;-89
2024/01/19 05:06:36;;;;;;;18.77;5.83;;;;;;;;;;6089035;23;20170;-91
2024/01/19 05:09:41;;;;;;;14.57;5.80;;;;;;;;;;6104802;23;20219;-90
2024/01/19 05:12:47;;;;;;;15.30;6.20;;;;;;;;;;6087737;23;20190;-89
2024/01/19 05:15:54;;;;;;;15.97;5.80;;;;;;;;;;6088042;23;20447;-91
2024/01/19 05:19:02;;;;;;;13.23;5.47;;;;;;;;;;6085596;23;20171;-91
2024/01/19 05:22:08;;;;;;;15.10;5.77;;;;;;;;;;6087880;23;20198;-92
2024/01/19 05:25:20;;;;;;;18.23;6.03;;;;;;;;;;6103362;23;20169;-90
2024/01/19 05:28:26;;;;;;;13.73;5.87;;;;;;;;;;6087510;23;20170;-89
2024/01/19 05:31:34;;;;;;;13.43;6.23;;;;;;;;;;6090023;23;20186;-87
2024/01/19 05:34:43;;;;;;;14.30;5.60;;;;;;;;;;6087335;23;20171;-90
2024/01/19 05:37:49;;;;;;;12.03;5.50;;;;;;;;;;6084633;23;20174;-90
2024/01/19 05:40:56;;;;;;;11.93;5.03;;;;;;;;;;6084284;23;20221;-90
2024/01/19 05:44:02;;;;;;;14.67;6.37;;;;;;;;;;6102760;23;20234;-89
2024/01/19 05:47:10;;;;;;;12.20;5.27;;;;;;;;;;6085288;23;20166;-92
2024/01/19 05:50:15;;;;;;;13.47;5.63;;;;;;;;;;6087271;23;20223;-91
2024/01/19 05:53:21;;;;;;;12.53;5.90;;;;;;;;;;6087650;23;20206;-91
2024/01/19 05:56:35;;;;;;;13.33;5.10;;;;;;;;;;6086546;23;20169;-88
2024/01/19 05:59:41;;;;;;;12.07;5.70;;;;;;;;;;6085707;23;20175;-89
2024/01/19 06:02:54;;;;;;;15.33;5.57;;;;;;;;;;6086942;23;20619;-88
2024/01/19 06:06:00;;;;;;;12.60;4.63;;;;;;;;;;6086509;23;20183;-92
2024/01/19 06:09:08;;;;;;;10.57;5.23;;;;;;;;;;6088762;23;20162;-89
2024/01/19 06:12:17;;;;;;;14.33;5.93;;;;;;;;;;6088578;23;20298;-87
2024/01/19 06:18:49;;;;;;;17.97;5.93;;;;;;;;;;6087165;23;20186;-92
2024/01/19 06:21:57;;;;;;;12.47;5.30;;;;;;;;;;6088826;23;20231;-90
2024/01/19 06:25:07;;;;;;;19.37;6.47;;;;;;;;;;6090785;23;20179;-90
2024/01/19 06:28:23;;;;;;;17.53;6.23;;;;;;;;;;6092189;23;20154;-91
2024/01/19 06:31:31;;;;;;;14.67;6.40;;;;;;;;;;6087781;23;20179;-90
2024/01/19 06:34:50;;;;;;;12.27;5.67;;;;;;;;;;6103808;23;20204;-91
2024/01/19 11:42:08;;;;;;;20.23;8.07;;;;;;;;;;6039989;23;20219;-91
2024/01/19 11:45:38;;;;;;;19.37;8.53;;;;;;;;;;6087147;23;20166;-91
2024/01/19 11:48:46;;;;;;;25.03;8.80;;;;;;;;;;6085061;23;20171;-90
2024/01/19 11:51:52;;;;;;;24.27;9.33;;;;;;;;;;6086640;23;20198;-92
2024/01/19 11:55:00;;;;;;;31.17;9.80;;;;;;;;;;6085479;23;20179;-91
2024/01/19 11:58:24;;;;;;;23.40;8.67;;;;;;;;;;6085590;23;20500;-92
2024/01/19 12:01:41;;;;;;;19.23;7.87;;;;;;;;;;6085275;23;20163;-90
2024/01/19 12:04:49;;;;;;;25.33;9.27;;;;;;;;;;6087307;23;20215;-92
2024/01/19 12:08:01;;;;;;;22.03;7.87;;;;;;;;;;6089045;23;20171;-92
2024/01/19 12:11:11;;;;;;;20.23;7.97;;;;;;;;;;6087755;23;20207;-93
2024/01/19 12:14:17;;;;;;;19.10;8.20;;;;;;;;;;6086219;23;20224;-90
2024/01/19 12:17:25;;;;;;;19.23;8.80;;;;;;;;;;6086820;23;20178;-91
2024/01/19 12:20:32;;;;;;;21.37;8.53;;;;;;;;;;6086280;23;20174;-93
2024/01/19 12:23:39;;;;;;;28.70;9.50;;;;;;;;;;6085608;23;20675;-92
2024/01/19 12:26:51;;;;;;;22.87;8.93;;;;;;;;;;6086177;23;20158;-90
2024/01/19 12:29:57;;;;;;;23.03;10.03;;;;;;;;;;6085156;23;20167;-94
2024/01/19 12:33:25;;;;;;;22.77;9.87;;;;;;;;;;6069442;23;20190;-92
2024/01/19 12:36:31;;;;;;;28.37;9.50;;;;;;;;;;6086927;23;20191;-93
2024/01/19 12:39:37;;;;;;;20.40;9.93;;;;;;;;;;6085595;23;20184;-90
2024/01/19 12:42:47;;;;;;;35.60;10.37;;;;;;;;;;6086874;23;20224;-89
2024/01/19 12:46:01;;;;;;;24.63;10.57;;;;;;;;;;6088490;23;20170;-90
2024/01/19 12:49:08;;;;;;;26.67;10.77;;;;;;;;;;6090581;23;20174;-89
2024/01/19 12:52:15;;;;;;;23.63;10.67;;;;;;;;;;6089023;23;20234;-92
2024/01/19 12:55:27;;;;;;;29.80;10.93;;;;;;;;;;6088871;23;20188;-90
2024/01/19 12:58:32;;;;;;;25.13;11.57;;;;;;;;;;6088153;23;20247;-92
2024/01/19 13:05:10;;;;;;;27.97;12.30;;;;;;;;;;6089580;23;20183;-91
2024/01/19 13:08:23;;;;;;;42.33;13.07;;;;;;;;;;6088183;23;20200;-92
2024/01/19 13:11:31;;;;;;;29.83;11.87;;;;;;;;;;6086728;23;20215;-90
2024/01/19 13:14:38;;;;;;;28.73;12.93;;;;;;;;;;6088105;23;20634;-91
2024/01/19 13:17:53;;;;;;;31.03;12.47;;;;;;;;;;6089856;23;20171;-91
2024/01/19 13:21:11;;;;;;;27.83;12.93;;;;;;;;;;6089101;23;20195;-91
2024/01/19 13:24:18;;;;;;;27.43;12.57;;;;;;;;;;6091069;23;20171;-92
2024/01/19 13:27:35;;;;;;;26.87;12.27;;;;;;;;;;6089572;23;20194;-92
2024/01/19 13:30:44;;;;;;;28.73;12.97;;;;;;;;;;6091192;23;20171;-93
